Milagro, New Mexico
Current Conditions -  °F | °C
As of 8:53 AM on Thursday 30 Oct 2014 (Local Time) from KCQC Reporting Station
Clear Clear  
Wind Chill: 55°   Ceiling: Unl
Heat Index: 55°   Visibility: 10mi
Dew Point: 12°   Wind: 10mph
Humidity: 18%   Direction: 60°ENE
Pressure: 30.38"   Gusts: NA
Location:  34.5735°N, 105.476°W
Report Text: KCQC 301453Z AUTO 06009KT 10SM CLR 13/M11 A3038 RMK AO2 SLP233 T01281111 53019
Loading
Personal Weather Stations






























Interactive Weather Map
Tropical Storm Tracking
New forecast layout! Learn more

10-Day Weather Forecast

Advertisements
Track Severe Weather on mobile